sensor_id;sensor_type;location;lat;lon;timestamp;temperature;humidity
4366;DHT22;2196;47.422;9.656;2023-12-20T00:01:59;3.20;99.90
4366;DHT22;2196;47.422;9.656;2023-12-20T00:04:26;3.20;99.90
4366;DHT22;2196;47.422;9.656;2023-12-20T00:06:55;3.20;99.90
4366;DHT22;2196;47.422;9.656;2023-12-20T00:09:22;3.20;99.90
4366;DHT22;2196;47.422;9.656;2023-12-20T00:11:51;3.10;99.90
4366;DHT22;2196;47.422;9.656;2023-12-20T00:14:18;3.20;99.90
4366;DHT22;2196;47.422;9.656;2023-12-20T00:16:45;3.10;99.90
4366;DHT22;2196;47.422;9.656;2023-12-20T00:19:14;3.10;99.90
4366;DHT22;2196;47.422;9.656;2023-12-20T00:21:41;3.10;99.90
4366;DHT22;2196;47.422;9.656;2023-12-20T00:24:08;3.10;99.90
4366;DHT22;2196;47.422;9.656;2023-12-20T00:26:34;3.10;99.90
4366;DHT22;2196;47.422;9.656;2023-12-20T00:29:01;3.20;99.90
4366;DHT22;2196;47.422;9.656;2023-12-20T00:31:28;3.20;99.90
4366;DHT22;2196;47.422;9.656;2023-12-20T00:33:55;3.30;99.90
4366;DHT22;2196;47.422;9.656;2023-12-20T00:36:24;3.40;99.90
4366;DHT22;2196;47.422;9.656;2023-12-20T00:38:51;3.30;99.90
4366;DHT22;2196;47.422;9.656;2023-12-20T00:41:18;3.40;99.90
4366;DHT22;2196;47.422;9.656;2023-12-20T00:43:45;3.30;99.90
4366;DHT22;2196;47.422;9.656;2023-12-20T00:46:12;3.30;99.90
4366;DHT22;2196;47.422;9.656;2023-12-20T00:48:39;3.20;99.90
4366;DHT22;2196;47.422;9.656;2023-12-20T00:51:07;3.20;99.90
4366;DHT22;2196;47.422;9.656;2023-12-20T00:53:36;3.20;99.90
4366;DHT22;2196;47.422;9.656;2023-12-20T00:56:03;3.10;99.90
4366;DHT22;2196;47.422;9.656;2023-12-20T00:58:30;3.10;99.90
4366;DHT22;2196;47.422;9.656;2023-12-20T01:00:57;3.10;99.90
4366;DHT22;2196;47.422;9.656;2023-12-20T01:03:24;3.20;99.90
4366;DHT22;2196;47.422;9.656;2023-12-20T01:05:51;3.20;99.90
4366;DHT22;2196;47.422;9.656;2023-12-20T01:08:18;3.20;99.90
4366;DHT22;2196;47.422;9.656;2023-12-20T01:10:47;3.10;99.90
4366;DHT22;2196;47.422;9.656;2023-12-20T01:13:14;3.10;99.90
4366;DHT22;2196;47.422;9.656;2023-12-20T01:15:41;3.10;99.90
4366;DHT22;2196;47.422;9.656;2023-12-20T01:18:08;3.00;99.90
4366;DHT22;2196;47.422;9.656;2023-12-20T01:20:35;3.10;99.90
4366;DHT22;2196;47.422;9.656;2023-12-20T01:23:01;3.00;99.90
4366;DHT22;2196;47.422;9.656;2023-12-20T01:25:28;3.00;99.90
4366;DHT22;2196;47.422;9.656;2023-12-20T01:27:57;3.00;99.90
4366;DHT22;2196;47.422;9.656;2023-12-20T01:30:24;3.00;99.90
4366;DHT22;2196;47.422;9.656;2023-12-20T01:32:51;3.00;99.90
4366;DHT22;2196;47.422;9.656;2023-12-20T01:35:18;3.00;99.90
4366;DHT22;2196;47.422;9.656;2023-12-20T01:37:45;3.10;99.90
4366;DHT22;2196;47.422;9.656;2023-12-20T01:40:12;3.00;99.90
4366;DHT22;2196;47.422;9.656;2023-12-20T01:42:39;3.20;99.90
4366;DHT22;2196;47.422;9.656;2023-12-20T01:45:08;3.30;99.90
4366;DHT22;2196;47.422;9.656;2023-12-20T01:47:36;3.20;99.90
4366;DHT22;2196;47.422;9.656;2023-12-20T01:50:04;3.10;99.90
4366;DHT22;2196;47.422;9.656;2023-12-20T01:52:34;3.10;99.90
4366;DHT22;2196;47.422;9.656;2023-12-20T01:55:01;3.00;99.90
4366;DHT22;2196;47.422;9.656;2023-12-20T01:57:30;3.00;99.90
4366;DHT22;2196;47.422;9.656;2023-12-20T01:59:56;3.00;99.90
4366;DHT22;2196;47.422;9.656;2023-12-20T02:02:27;3.00;99.90
4366;DHT22;2196;47.422;9.656;2023-12-20T02:04:55;3.00;99.90
4366;DHT22;2196;47.422;9.656;2023-12-20T02:07:22;3.00;99.90
4366;DHT22;2196;47.422;9.656;2023-12-20T02:09:49;3.10;99.90
4366;DHT22;2196;47.422;9.656;2023-12-20T02:12:16;3.10;99.90
4366;DHT22;2196;47.422;9.656;2023-12-20T02:14:43;3.20;99.90
4366;DHT22;2196;47.422;9.656;2023-12-20T02:17:10;3.10;99.90
4366;DHT22;2196;47.422;9.656;2023-12-20T02:19:39;3.10;99.90
4366;DHT22;2196;47.422;9.656;2023-12-20T02:22:08;3.20;99.90
4366;DHT22;2196;47.422;9.656;2023-12-20T02:24:35;3.20;99.90
4366;DHT22;2196;47.422;9.656;2023-12-20T02:27:03;3.20;99.90
4366;DHT22;2196;47.422;9.656;2023-12-20T02:29:31;3.20;99.90
4366;DHT22;2196;47.422;9.656;2023-12-20T02:31:58;3.20;99.90
4366;DHT22;2196;47.422;9.656;2023-12-20T02:34:25;3.10;99.90
4366;DHT22;2196;47.422;9.656;2023-12-20T02:36:52;3.10;99.90
4366;DHT22;2196;47.422;9.656;2023-12-20T02:39:21;3.10;99.90
4366;DHT22;2196;47.422;9.656;2023-12-20T02:41:48;3.10;99.90
4366;DHT22;2196;47.422;9.656;2023-12-20T02:44:15;3.10;99.90
4366;DHT22;2196;47.422;9.656;2023-12-20T02:46:42;3.10;99.90
4366;DHT22;2196;47.422;9.656;2023-12-20T02:49:09;3.10;99.90
4366;DHT22;2196;47.422;9.656;2023-12-20T02:51:36;3.10;99.90
4366;DHT22;2196;47.422;9.656;2023-12-20T02:54:04;3.10;99.90
4366;DHT22;2196;47.422;9.656;2023-12-20T02:56:32;3.10;99.90
4366;DHT22;2196;47.422;9.656;2023-12-20T02:58:59;3.10;99.90
4366;DHT22;2196;47.422;9.656;2023-12-20T03:01:26;3.00;99.90
4366;DHT22;2196;47.422;9.656;2023-12-20T03:03:53;3.10;99.90
4366;DHT22;2196;47.422;9.656;2023-12-20T03:06:20;3.10;99.90
4366;DHT22;2196;47.422;9.656;2023-12-20T03:08:47;3.10;99.90
4366;DHT22;2196;47.422;9.656;2023-12-20T03:11:14;3.20;99.90
4366;DHT22;2196;47.422;9.656;2023-12-20T03:13:42;3.20;99.90
4366;DHT22;2196;47.422;9.656;2023-12-20T03:16:09;3.30;99.90
4366;DHT22;2196;47.422;9.656;2023-12-20T03:18:37;3.30;99.90
4366;DHT22;2196;47.422;9.656;2023-12-20T03:21:04;3.30;99.90
4366;DHT22;2196;47.422;9.656;2023-12-20T03:23:32;3.30;99.90
4366;DHT22;2196;47.422;9.656;2023-12-20T03:25:59;3.40;99.90
4366;DHT22;2196;47.422;9.656;2023-12-20T03:28:26;3.50;99.90
4366;DHT22;2196;47.422;9.656;2023-12-20T03:30:54;3.50;99.90
4366;DHT22;2196;47.422;9.656;2023-12-20T03:33:21;3.50;99.90
4366;DHT22;2196;47.422;9.656;2023-12-20T03:35:48;3.50;99.90
4366;DHT22;2196;47.422;9.656;2023-12-20T03:38:15;3.50;99.90
4366;DHT22;2196;47.422;9.656;2023-12-20T03:40:42;3.50;99.90
4366;DHT22;2196;47.422;9.656;2023-12-20T03:43:09;3.50;99.90
4366;DHT22;2196;47.422;9.656;2023-12-20T03:45:36;3.50;99.90
4366;DHT22;2196;47.422;9.656;2023-12-20T03:48:05;3.50;99.90
4366;DHT22;2196;47.422;9.656;2023-12-20T03:50:32;3.50;99.90
4366;DHT22;2196;47.422;9.656;2023-12-20T03:52:59;3.60;99.90
4366;DHT22;2196;47.422;9.656;2023-12-20T03:55:26;3.60;99.90
4366;DHT22;2196;47.422;9.656;2023-12-20T03:57:53;3.60;99.90
4366;DHT22;2196;47.422;9.656;2023-12-20T04:00:20;3.60;99.90
4366;DHT22;2196;47.422;9.656;2023-12-20T04:02:47;3.60;99.90
4366;DHT22;2196;47.422;9.656;2023-12-20T04:05:15;3.60;99.90
4366;DHT22;2196;47.422;9.656;2023-12-20T04:07:42;3.60;99.90
4366;DHT22;2196;47.422;9.656;2023-12-20T04:10:09;3.60;99.90
4366;DHT22;2196;47.422;9.656;2023-12-20T04:12:36;3.60;99.90
4366;DHT22;2196;47.422;9.656;2023-12-20T04:15:04;3.60;99.90
4366;DHT22;2196;47.422;9.656;2023-12-20T04:17:34;3.60;99.90
4366;DHT22;2196;47.422;9.656;2023-12-20T04:20:02;3.70;99.90
4366;DHT22;2196;47.422;9.656;2023-12-20T04:22:30;3.80;99.90
4366;DHT22;2196;47.422;9.656;2023-12-20T04:24:57;3.80;99.90
4366;DHT22;2196;47.422;9.656;2023-12-20T04:27:24;3.70;99.90
4366;DHT22;2196;47.422;9.656;2023-12-20T04:29:51;3.80;99.90
4366;DHT22;2196;47.422;9.656;2023-12-20T04:32:18;3.80;99.90
4366;DHT22;2196;47.422;9.656;2023-12-20T04:34:44;3.80;99.90
4366;DHT22;2196;47.422;9.656;2023-12-20T04:37:11;3.70;99.90
4366;DHT22;2196;47.422;9.656;2023-12-20T04:39:40;3.70;99.90
4366;DHT22;2196;47.422;9.656;2023-12-20T04:42:07;3.60;99.90
4366;DHT22;2196;47.422;9.656;2023-12-20T04:44:34;3.60;99.90
4366;DHT22;2196;47.422;9.656;2023-12-20T04:47:01;3.70;99.90
4366;DHT22;2196;47.422;9.656;2023-12-20T04:49:29;3.60;99.90
4366;DHT22;2196;47.422;9.656;2023-12-20T04:51:55;3.60;99.90
4366;DHT22;2196;47.422;9.656;2023-12-20T04:54:22;3.70;99.90
4366;DHT22;2196;47.422;9.656;2023-12-20T04:56:53;3.70;99.90
4366;DHT22;2196;47.422;9.656;2023-12-20T04:59:20;3.70;99.90
4366;DHT22;2196;47.422;9.656;2023-12-20T05:01:47;3.80;99.90
4366;DHT22;2196;47.422;9.656;2023-12-20T05:04:14;3.80;99.90
4366;DHT22;2196;47.422;9.656;2023-12-20T05:06:41;3.80;99.90
4366;DHT22;2196;47.422;9.656;2023-12-20T05:09:08;3.70;99.90
4366;DHT22;2196;47.422;9.656;2023-12-20T05:11:35;3.70;99.90
4366;DHT22;2196;47.422;9.656;2023-12-20T05:14:04;3.60;99.90
4366;DHT22;2196;47.422;9.656;2023-12-20T05:16:31;3.60;99.90
4366;DHT22;2196;47.422;9.656;2023-12-20T05:18:58;3.70;99.90
4366;DHT22;2196;47.422;9.656;2023-12-20T05:21:26;3.70;99.90
4366;DHT22;2196;47.422;9.656;2023-12-20T05:23:53;3.60;99.90
4366;DHT22;2196;47.422;9.656;2023-12-20T05:26:20;3.70;99.90
4366;DHT22;2196;47.422;9.656;2023-12-20T05:28:47;3.70;99.90
4366;DHT22;2196;47.422;9.656;2023-12-20T05:31:15;3.60;99.90
4366;DHT22;2196;47.422;9.656;2023-12-20T05:33:42;3.60;99.90
4366;DHT22;2196;47.422;9.656;2023-12-20T05:36:09;3.60;99.90
4366;DHT22;2196;47.422;9.656;2023-12-20T05:38:39;3.60;99.90
4366;DHT22;2196;47.422;9.656;2023-12-20T05:41:06;3.60;99.90
4366;DHT22;2196;47.422;9.656;2023-12-20T05:43:33;3.70;99.90
4366;DHT22;2196;47.422;9.656;2023-12-20T05:46:00;3.70;99.90
4366;DHT22;2196;47.422;9.656;2023-12-20T05:48:28;3.70;99.90
4366;DHT22;2196;47.422;9.656;2023-12-20T05:50:55;3.70;99.90
4366;DHT22;2196;47.422;9.656;2023-12-20T05:53:22;3.70;99.90
4366;DHT22;2196;47.422;9.656;2023-12-20T05:58:16;3.70;99.90
4366;DHT22;2196;47.422;9.656;2023-12-20T06:00:43;3.60;99.90
4366;DHT22;2196;47.422;9.656;2023-12-20T06:03:10;3.70;99.90
4366;DHT22;2196;47.422;9.656;2023-12-20T06:05:38;3.60;99.90
4366;DHT22;2196;47.422;9.656;2023-12-20T06:08:06;3.70;99.90
4366;DHT22;2196;47.422;9.656;2023-12-20T06:10:33;3.70;99.90
4366;DHT22;2196;47.422;9.656;2023-12-20T06:13:00;3.70;99.90
4366;DHT22;2196;47.422;9.656;2023-12-20T06:15:27;3.70;99.90
4366;DHT22;2196;47.422;9.656;2023-12-20T06:17:54;3.70;99.90
4366;DHT22;2196;47.422;9.656;2023-12-20T06:20:21;3.70;99.90
4366;DHT22;2196;47.422;9.656;2023-12-20T06:22:49;3.70;99.90
4366;DHT22;2196;47.422;9.656;2023-12-20T06:25:16;3.70;99.90
4366;DHT22;2196;47.422;9.656;2023-12-20T06:27:43;3.70;99.90
4366;DHT22;2196;47.422;9.656;2023-12-20T06:30:11;3.70;99.90
4366;DHT22;2196;47.422;9.656;2023-12-20T06:32:38;3.60;99.90
4366;DHT22;2196;47.422;9.656;2023-12-20T06:35:06;3.70;99.90
4366;DHT22;2196;47.422;9.656;2023-12-20T06:37:33;3.70;99.90
4366;DHT22;2196;47.422;9.656;2023-12-20T06:40:01;3.70;99.90
4366;DHT22;2196;47.422;9.656;2023-12-20T06:42:28;3.70;99.90
4366;DHT22;2196;47.422;9.656;2023-12-20T06:44:55;3.70;99.90
4366;DHT22;2196;47.422;9.656;2023-12-20T06:47:22;3.80;99.90
4366;DHT22;2196;47.422;9.656;2023-12-20T06:49:49;3.70;99.90
4366;DHT22;2196;47.422;9.656;2023-12-20T06:52:16;3.70;99.90
4366;DHT22;2196;47.422;9.656;2023-12-20T06:54:43;3.80;99.90
4366;DHT22;2196;47.422;9.656;2023-12-20T06:57:11;3.90;99.90
4366;DHT22;2196;47.422;9.656;2023-12-20T06:59:39;4.00;99.90
4366;DHT22;2196;47.422;9.656;2023-12-20T07:02:06;4.00;99.90
4366;DHT22;2196;47.422;9.656;2023-12-20T07:04:33;4.00;99.90
4366;DHT22;2196;47.422;9.656;2023-12-20T07:07:00;3.90;99.90
4366;DHT22;2196;47.422;9.656;2023-12-20T07:09:27;4.00;99.90
4366;DHT22;2196;47.422;9.656;2023-12-20T07:11:54;4.00;99.90
4366;DHT22;2196;47.422;9.656;2023-12-20T07:14:23;4.00;99.90
4366;DHT22;2196;47.422;9.656;2023-12-20T07:16:52;4.00;99.90
4366;DHT22;2196;47.422;9.656;2023-12-20T07:19:19;4.00;99.90
4366;DHT22;2196;47.422;9.656;2023-12-20T07:21:45;4.00;99.90
4366;DHT22;2196;47.422;9.656;2023-12-20T07:24:12;4.00;99.90
4366;DHT22;2196;47.422;9.656;2023-12-20T07:26:39;4.00;99.90
4366;DHT22;2196;47.422;9.656;2023-12-20T07:29:06;4.00;99.90
4366;DHT22;2196;47.422;9.656;2023-12-20T07:31:34;4.10;99.90
4366;DHT22;2196;47.422;9.656;2023-12-20T07:34:01;4.10;99.90
4366;DHT22;2196;47.422;9.656;2023-12-20T07:36:28;4.00;99.90
4366;DHT22;2196;47.422;9.656;2023-12-20T07:38:55;4.00;99.90
4366;DHT22;2196;47.422;9.656;2023-12-20T07:41:22;4.00;99.90
4366;DHT22;2196;47.422;9.656;2023-12-20T07:43:49;4.00;99.90
4366;DHT22;2196;47.422;9.656;2023-12-20T07:46:16;4.10;99.90
4366;DHT22;2196;47.422;9.656;2023-12-20T07:48:45;4.10;99.90
4366;DHT22;2196;47.422;9.656;2023-12-20T07:51:12;4.10;99.90
4366;DHT22;2196;47.422;9.656;2023-12-20T07:53:39;4.10;99.90
4366;DHT22;2196;47.422;9.656;2023-12-20T07:56:14;4.10;99.90
4366;DHT22;2196;47.422;9.656;2023-12-20T07:58:42;4.10;99.90
4366;DHT22;2196;47.422;9.656;2023-12-20T08:01:09;4.10;99.90
4366;DHT22;2196;47.422;9.656;2023-12-20T08:03:36;4.10;99.90
4366;DHT22;2196;47.422;9.656;2023-12-20T08:06:04;4.10;99.90
4366;DHT22;2196;47.422;9.656;2023-12-20T08:08:31;4.10;99.90
4366;DHT22;2196;47.422;9.656;2023-12-20T08:10:58;4.10;99.90
4366;DHT22;2196;47.422;9.656;2023-12-20T08:13:26;4.20;99.90
4366;DHT22;2196;47.422;9.656;2023-12-20T08:15:53;4.30;99.90
4366;DHT22;2196;47.422;9.656;2023-12-20T08:18:21;4.30;99.90
4366;DHT22;2196;47.422;9.656;2023-12-20T08:20:48;4.40;99.90
4366;DHT22;2196;47.422;9.656;2023-12-20T08:23:16;4.30;99.90
4366;DHT22;2196;47.422;9.656;2023-12-20T08:25:43;4.30;99.90
4366;DHT22;2196;47.422;9.656;2023-12-20T08:28:11;4.30;99.90
4366;DHT22;2196;47.422;9.656;2023-12-20T08:30:38;4.30;99.90
4366;DHT22;2196;47.422;9.656;2023-12-20T08:33:06;4.30;99.90
4366;DHT22;2196;47.422;9.656;2023-12-20T08:35:36;4.30;99.90
4366;DHT22;2196;47.422;9.656;2023-12-20T08:38:04;4.40;99.90
4366;DHT22;2196;47.422;9.656;2023-12-20T08:40:32;4.30;99.90
4366;DHT22;2196;47.422;9.656;2023-12-20T08:42:59;4.30;99.90
4366;DHT22;2196;47.422;9.656;2023-12-20T08:45:26;4.40;99.90
4366;DHT22;2196;47.422;9.656;2023-12-20T08:47:53;4.40;99.90
4366;DHT22;2196;47.422;9.656;2023-12-20T08:50:19;4.40;99.90
4366;DHT22;2196;47.422;9.656;2023-12-20T08:52:47;4.50;99.90
4366;DHT22;2196;47.422;9.656;2023-12-20T08:55:14;4.50;99.90
4366;DHT22;2196;47.422;9.656;2023-12-20T08:57:43;4.50;99.90
4366;DHT22;2196;47.422;9.656;2023-12-20T09:00:11;4.60;99.90
4366;DHT22;2196;47.422;9.656;2023-12-20T09:02:38;4.60;99.90
4366;DHT22;2196;47.422;9.656;2023-12-20T09:05:04;4.60;99.90
4366;DHT22;2196;47.422;9.656;2023-12-20T09:07:31;4.60;99.90
4366;DHT22;2196;47.422;9.656;2023-12-20T09:09:59;4.60;99.90
4366;DHT22;2196;47.422;9.656;2023-12-20T09:12:29;4.70;99.90
4366;DHT22;2196;47.422;9.656;2023-12-20T09:15:01;4.70;99.90
4366;DHT22;2196;47.422;9.656;2023-12-20T09:17:28;4.70;99.90
4366;DHT22;2196;47.422;9.656;2023-12-20T09:19:55;4.70;99.90
4366;DHT22;2196;47.422;9.656;2023-12-20T09:22:22;4.90;99.90
4366;DHT22;2196;47.422;9.656;2023-12-20T09:24:49;4.90;99.90
4366;DHT22;2196;47.422;9.656;2023-12-20T09:27:16;4.90;99.90
4366;DHT22;2196;47.422;9.656;2023-12-20T09:29:43;5.00;99.90
4366;DHT22;2196;47.422;9.656;2023-12-20T09:32:11;5.00;99.90
4366;DHT22;2196;47.422;9.656;2023-12-20T09:34:38;5.00;99.90
4366;DHT22;2196;47.422;9.656;2023-12-20T09:37:05;5.00;99.90
4366;DHT22;2196;47.422;9.656;2023-12-20T09:39:33;5.00;99.90
4366;DHT22;2196;47.422;9.656;2023-12-20T09:42:01;5.10;99.90
4366;DHT22;2196;47.422;9.656;2023-12-20T09:44:29;5.20;99.90
4366;DHT22;2196;47.422;9.656;2023-12-20T09:46:57;5.20;99.90
4366;DHT22;2196;47.422;9.656;2023-12-20T09:49:27;5.20;99.90
4366;DHT22;2196;47.422;9.656;2023-12-20T09:51:55;5.20;99.90
4366;DHT22;2196;47.422;9.656;2023-12-20T09:54:23;5.20;99.90
4366;DHT22;2196;47.422;9.656;2023-12-20T09:56:50;5.20;99.90
4366;DHT22;2196;47.422;9.656;2023-12-20T09:59:17;5.20;99.90
4366;DHT22;2196;47.422;9.656;2023-12-20T10:01:44;5.30;99.90
4366;DHT22;2196;47.422;9.656;2023-12-20T10:04:12;5.30;99.90
4366;DHT22;2196;47.422;9.656;2023-12-20T10:06:42;5.30;99.90
4366;DHT22;2196;47.422;9.656;2023-12-20T10:09:09;5.40;99.90
4366;DHT22;2196;47.422;9.656;2023-12-20T10:11:36;5.40;99.90
4366;DHT22;2196;47.422;9.656;2023-12-20T10:14:04;5.50;99.90
4366;DHT22;2196;47.422;9.656;2023-12-20T10:16:32;5.50;99.90
4366;DHT22;2196;47.422;9.656;2023-12-20T10:19:00;5.50;99.90
4366;DHT22;2196;47.422;9.656;2023-12-20T10:21:27;5.50;99.90
4366;DHT22;2196;47.422;9.656;2023-12-20T10:23:56;5.50;99.90
4366;DHT22;2196;47.422;9.656;2023-12-20T10:26:25;5.40;99.90
4366;DHT22;2196;47.422;9.656;2023-12-20T10:28:54;5.30;99.90
4366;DHT22;2196;47.422;9.656;2023-12-20T10:31:28;5.30;99.90
4366;DHT22;2196;47.422;9.656;2023-12-20T10:33:57;5.30;99.90
4366;DHT22;2196;47.422;9.656;2023-12-20T10:36:25;5.30;99.90
4366;DHT22;2196;47.422;9.656;2023-12-20T10:38:53;5.30;99.90
4366;DHT22;2196;47.422;9.656;2023-12-20T10:41:26;5.30;99.90
4366;DHT22;2196;47.422;9.656;2023-12-20T10:43:56;5.40;99.90
4366;DHT22;2196;47.422;9.656;2023-12-20T10:46:26;5.40;99.90
4366;DHT22;2196;47.422;9.656;2023-12-20T10:48:54;5.40;99.90
4366;DHT22;2196;47.422;9.656;2023-12-20T10:51:22;5.40;99.90
4366;DHT22;2196;47.422;9.656;2023-12-20T10:53:50;5.50;99.90
4366;DHT22;2196;47.422;9.656;2023-12-20T10:56:18;5.60;99.90
4366;DHT22;2196;47.422;9.656;2023-12-20T10:58:47;5.60;99.90
4366;DHT22;2196;47.422;9.656;2023-12-20T11:01:15;5.70;99.90
4366;DHT22;2196;47.422;9.656;2023-12-20T11:03:46;5.80;99.90
4366;DHT22;2196;47.422;9.656;2023-12-20T11:06:26;5.90;99.90
4366;DHT22;2196;47.422;9.656;2023-12-20T11:09:00;5.90;99.90
4366;DHT22;2196;47.422;9.656;2023-12-20T11:11:37;4.90;99.90
4366;DHT22;2196;47.422;9.656;2023-12-20T11:14:11;5.80;99.90
4366;DHT22;2196;47.422;9.656;2023-12-20T11:16:42;5.90;99.90
4366;DHT22;2196;47.422;9.656;2023-12-20T11:19:11;5.90;99.90
4366;DHT22;2196;47.422;9.656;2023-12-20T11:21:40;5.90;99.90
4366;DHT22;2196;47.422;9.656;2023-12-20T11:24:07;5.90;99.90
4366;DHT22;2196;47.422;9.656;2023-12-20T11:26:33;6.00;99.90
4366;DHT22;2196;47.422;9.656;2023-12-20T11:29:30;6.00;99.90
4366;DHT22;2196;47.422;9.656;2023-12-20T11:31:57;6.10;99.90
4366;DHT22;2196;47.422;9.656;2023-12-20T11:34:27;6.10;99.90
4366;DHT22;2196;47.422;9.656;2023-12-20T11:36:59;6.10;99.90
4366;DHT22;2196;47.422;9.656;2023-12-20T11:39:26;6.10;99.90
4366;DHT22;2196;47.422;9.656;2023-12-20T11:41:55;6.10;99.90
4366;DHT22;2196;47.422;9.656;2023-12-20T11:44:25;6.10;99.90
4366;DHT22;2196;47.422;9.656;2023-12-20T11:46:55;6.10;99.90
4366;DHT22;2196;47.422;9.656;2023-12-20T11:49:24;6.20;99.90
4366;DHT22;2196;47.422;9.656;2023-12-20T11:51:52;6.20;99.90
4366;DHT22;2196;47.422;9.656;2023-12-20T11:54:19;6.10;99.90
4366;DHT22;2196;47.422;9.656;2023-12-20T11:56:51;6.10;99.90
4366;DHT22;2196;47.422;9.656;2023-12-20T11:59:18;6.20;99.90
4366;DHT22;2196;47.422;9.656;2023-12-20T12:01:48;6.20;99.90
4366;DHT22;2196;47.422;9.656;2023-12-20T12:04:23;6.20;99.90
4366;DHT22;2196;47.422;9.656;2023-12-20T12:06:53;6.30;99.90
4366;DHT22;2196;47.422;9.656;2023-12-20T12:09:19;6.20;99.90
4366;DHT22;2196;47.422;9.656;2023-12-20T12:11:46;6.20;99.90
4366;DHT22;2196;47.422;9.656;2023-12-20T12:14:14;6.20;99.90
4366;DHT22;2196;47.422;9.656;2023-12-20T12:16:42;6.20;99.90
4366;DHT22;2196;47.422;9.656;2023-12-20T12:19:20;6.10;99.90
4366;DHT22;2196;47.422;9.656;2023-12-20T12:21:49;6.20;99.90
4366;DHT22;2196;47.422;9.656;2023-12-20T12:24:20;6.20;99.90
4366;DHT22;2196;47.422;9.656;2023-12-20T12:26:50;6.30;99.90
4366;DHT22;2196;47.422;9.656;2023-12-20T12:29:20;6.30;99.90
4366;DHT22;2196;47.422;9.656;2023-12-20T12:31:47;6.30;99.90
4366;DHT22;2196;47.422;9.656;2023-12-20T12:34:14;6.30;99.90
4366;DHT22;2196;47.422;9.656;2023-12-20T12:36:41;6.30;99.90
4366;DHT22;2196;47.422;9.656;2023-12-20T12:39:12;6.40;99.90
4366;DHT22;2196;47.422;9.656;2023-12-20T12:41:41;6.40;99.90
4366;DHT22;2196;47.422;9.656;2023-12-20T12:44:08;6.40;99.90
4366;DHT22;2196;47.422;9.656;2023-12-20T12:46:35;6.50;99.90
4366;DHT22;2196;47.422;9.656;2023-12-20T12:49:02;6.50;99.90
4366;DHT22;2196;47.422;9.656;2023-12-20T12:51:29;6.50;99.90
4366;DHT22;2196;47.422;9.656;2023-12-20T12:53:57;6.70;99.90
4366;DHT22;2196;47.422;9.656;2023-12-20T12:56:25;6.70;99.90
4366;DHT22;2196;47.422;9.656;2023-12-20T12:58:52;6.70;99.90
4366;DHT22;2196;47.422;9.656;2023-12-20T13:01:19;6.70;99.90
4366;DHT22;2196;47.422;9.656;2023-12-20T13:03:46;6.70;99.90
4366;DHT22;2196;47.422;9.656;2023-12-20T13:06:13;6.70;99.90
4366;DHT22;2196;47.422;9.656;2023-12-20T13:08:40;6.80;99.90
4366;DHT22;2196;47.422;9.656;2023-12-20T13:11:07;6.80;99.90
4366;DHT22;2196;47.422;9.656;2023-12-20T13:13:35;6.80;99.90
4366;DHT22;2196;47.422;9.656;2023-12-20T13:16:03;6.80;99.90
4366;DHT22;2196;47.422;9.656;2023-12-20T13:18:30;6.80;99.90
4366;DHT22;2196;47.422;9.656;2023-12-20T13:20:57;6.90;99.90
4366;DHT22;2196;47.422;9.656;2023-12-20T13:23:24;6.90;99.90
4366;DHT22;2196;47.422;9.656;2023-12-20T13:25:51;6.90;99.90
4366;DHT22;2196;47.422;9.656;2023-12-20T13:28:18;6.90;99.90
4366;DHT22;2196;47.422;9.656;2023-12-20T13:30:46;6.90;99.90
4366;DHT22;2196;47.422;9.656;2023-12-20T13:33:13;7.00;99.90
4366;DHT22;2196;47.422;9.656;2023-12-20T13:35:40;7.00;99.90
4366;DHT22;2196;47.422;9.656;2023-12-20T13:38:07;7.00;99.90
4366;DHT22;2196;47.422;9.656;2023-12-20T13:40:34;7.10;99.90
4366;DHT22;2196;47.422;9.656;2023-12-20T13:43:01;7.10;99.90
4366;DHT22;2196;47.422;9.656;2023-12-20T13:45:29;7.00;99.90
4366;DHT22;2196;47.422;9.656;2023-12-20T13:47:58;7.10;99.90
4366;DHT22;2196;47.422;9.656;2023-12-20T13:50:25;7.10;99.90
4366;DHT22;2196;47.422;9.656;2023-12-20T13:52:53;7.10;99.90
4366;DHT22;2196;47.422;9.656;2023-12-20T13:55:20;7.00;99.90
4366;DHT22;2196;47.422;9.656;2023-12-20T13:57:50;6.90;99.90
4366;DHT22;2196;47.422;9.656;2023-12-20T14:00:17;6.90;99.90
4366;DHT22;2196;47.422;9.656;2023-12-20T14:02:44;6.80;99.90
4366;DHT22;2196;47.422;9.656;2023-12-20T14:05:13;6.90;99.90
4366;DHT22;2196;47.422;9.656;2023-12-20T14:07:43;6.80;99.90
4366;DHT22;2196;47.422;9.656;2023-12-20T14:10:11;6.60;99.90
4366;DHT22;2196;47.422;9.656;2023-12-20T14:12:38;6.60;99.90
4366;DHT22;2196;47.422;9.656;2023-12-20T14:15:06;6.60;99.90
4366;DHT22;2196;47.422;9.656;2023-12-20T14:17:36;6.50;99.90
4366;DHT22;2196;47.422;9.656;2023-12-20T14:20:04;6.50;99.90
4366;DHT22;2196;47.422;9.656;2023-12-20T14:22:33;6.50;99.90
4366;DHT22;2196;47.422;9.656;2023-12-20T14:25:00;6.50;99.90
4366;DHT22;2196;47.422;9.656;2023-12-20T14:27:28;6.50;99.90
4366;DHT22;2196;47.422;9.656;2023-12-20T14:29:55;6.50;99.90
4366;DHT22;2196;47.422;9.656;2023-12-20T14:32:22;6.60;99.90
4366;DHT22;2196;47.422;9.656;2023-12-20T14:34:49;6.50;99.90
4366;DHT22;2196;47.422;9.656;2023-12-20T14:37:16;6.40;99.90
4366;DHT22;2196;47.422;9.656;2023-12-20T14:39:44;6.50;99.90
4366;DHT22;2196;47.422;9.656;2023-12-20T14:42:11;6.50;99.90
4366;DHT22;2196;47.422;9.656;2023-12-20T14:44:39;6.50;99.90
4366;DHT22;2196;47.422;9.656;2023-12-20T14:47:06;6.40;99.90
4366;DHT22;2196;47.422;9.656;2023-12-20T14:49:34;6.30;99.90
4366;DHT22;2196;47.422;9.656;2023-12-20T14:52:01;6.30;99.90
4366;DHT22;2196;47.422;9.656;2023-12-20T14:54:28;6.20;99.90
4366;DHT22;2196;47.422;9.656;2023-12-20T14:56:57;6.20;99.90
4366;DHT22;2196;47.422;9.656;2023-12-20T14:59:24;6.20;99.90
4366;DHT22;2196;47.422;9.656;2023-12-20T15:01:51;6.10;99.90
4366;DHT22;2196;47.422;9.656;2023-12-20T15:04:18;6.10;99.90
4366;DHT22;2196;47.422;9.656;2023-12-20T15:06:55;6.10;99.90
4366;DHT22;2196;47.422;9.656;2023-12-20T15:09:22;6.10;99.90
4366;DHT22;2196;47.422;9.656;2023-12-20T15:11:49;6.10;99.90
4366;DHT22;2196;47.422;9.656;2023-12-20T15:14:22;6.10;99.90
4366;DHT22;2196;47.422;9.656;2023-12-20T15:16:51;6.10;99.90
4366;DHT22;2196;47.422;9.656;2023-12-20T15:19:18;6.00;99.90
4366;DHT22;2196;47.422;9.656;2023-12-20T15:21:45;6.10;99.90
4366;DHT22;2196;47.422;9.656;2023-12-20T15:24:12;6.00;99.90
4366;DHT22;2196;47.422;9.656;2023-12-20T15:26:41;5.90;99.90
4366;DHT22;2196;47.422;9.656;2023-12-20T15:29:08;6.00;99.90
4366;DHT22;2196;47.422;9.656;2023-12-20T15:31:42;5.90;99.90
4366;DHT22;2196;47.422;9.656;2023-12-20T15:34:09;5.90;99.90
4366;DHT22;2196;47.422;9.656;2023-12-20T15:36:36;5.90;99.90
4366;DHT22;2196;47.422;9.656;2023-12-20T15:39:03;5.80;99.90
4366;DHT22;2196;47.422;9.656;2023-12-20T15:41:30;5.80;99.90
4366;DHT22;2196;47.422;9.656;2023-12-20T15:43:57;5.80;99.90
4366;DHT22;2196;47.422;9.656;2023-12-20T15:46:24;5.80;99.90
4366;DHT22;2196;47.422;9.656;2023-12-20T15:48:53;5.90;99.90
4366;DHT22;2196;47.422;9.656;2023-12-20T15:51:21;5.90;99.90
4366;DHT22;2196;47.422;9.656;2023-12-20T15:53:49;5.90;99.90
4366;DHT22;2196;47.422;9.656;2023-12-20T15:56:16;5.80;99.90
4366;DHT22;2196;47.422;9.656;2023-12-20T15:58:43;5.80;99.90
4366;DHT22;2196;47.422;9.656;2023-12-20T16:01:10;5.80;99.90
4366;DHT22;2196;47.422;9.656;2023-12-20T16:03:37;5.80;99.90
4366;DHT22;2196;47.422;9.656;2023-12-20T16:06:06;5.70;99.90
4366;DHT22;2196;47.422;9.656;2023-12-20T16:08:33;5.60;99.90
4366;DHT22;2196;47.422;9.656;2023-12-20T16:11:00;5.50;99.90
4366;DHT22;2196;47.422;9.656;2023-12-20T16:13:27;5.40;99.90
4366;DHT22;2196;47.422;9.656;2023-12-20T16:15:54;5.40;99.90
4366;DHT22;2196;47.422;9.656;2023-12-20T16:18:21;5.40;99.90
4366;DHT22;2196;47.422;9.656;2023-12-20T16:20:48;5.30;99.90
4366;DHT22;2196;47.422;9.656;2023-12-20T16:23:16;5.60;99.90